Time;durP1;ratioP1;P1;durP2;ratioP2;P2;SDS_P1;SDS_P2;PMS_P1;PMS_P2;Temp;Humidity;BMP_temperature;BMP_pressure;BME280_temperature;BME280_humidity;BME280_pressure;Samples;Min_cycle;Max_cycle;Signal;HPM_P1;HPM_P2
2023/02/17 00:01:59;;;;;;;26.20;9.07;;;1.90;99.90;;;;;;4999961;28;20189;-82
2023/02/17 00:04:27;;;;;;;18.50;10.77;;;1.80;99.90;;;;;;5016940;28;20185;-81
2023/02/17 00:06:53;;;;;;;20.17;9.90;;;1.80;99.90;;;;;;4983171;28;20607;-82
2023/02/17 00:09:19;;;;;;;20.30;9.43;;;1.80;99.90;;;;;;4998776;28;20193;-81
2023/02/17 00:11:45;;;;;;;15.77;9.60;;;1.80;99.90;;;;;;5016231;28;20607;-82
2023/02/17 00:14:12;;;;;;;27.43;9.70;;;1.70;99.90;;;;;;5016738;28;20194;-84
2023/02/17 00:16:38;;;;;;;24.90;10.03;;;1.80;99.90;;;;;;5016799;28;20268;-83
2023/02/17 00:19:22;;;;;;;29.13;9.70;;;1.70;99.90;;;;;;5016658;28;20213;-84
2023/02/17 00:21:52;;;;;;;22.73;8.23;;;1.70;99.90;;;;;;5001962;28;20172;-83
2023/02/17 00:24:17;;;;;;;30.90;8.00;;;1.70;99.90;;;;;;5017537;28;20187;-84
2023/02/17 00:26:43;;;;;;;18.67;9.57;;;1.60;99.90;;;;;;5016223;28;20581;-83
2023/02/17 00:29:09;;;;;;;25.53;9.03;;;1.60;99.90;;;;;;5017428;28;20181;-83
2023/02/17 00:31:35;;;;;;;20.87;8.77;;;1.60;99.90;;;;;;4999285;28;20709;-82
2023/02/17 00:34:00;;;;;;;23.30;9.83;;;1.50;99.90;;;;;;4998991;28;20593;-82
2023/02/17 00:36:27;;;;;;;21.17;8.80;;;1.50;99.90;;;;;;5016309;28;20189;-82
2023/02/17 00:38:55;;;;;;;20.50;10.03;;;1.70;99.90;;;;;;4999344;28;20177;-83
2023/02/17 00:41:21;;;;;;;25.43;8.87;;;1.60;99.90;;;;;;5016111;28;20178;-82
2023/02/17 00:43:47;;;;;;;27.73;9.40;;;1.60;99.90;;;;;;5015786;28;20178;-83
2023/02/17 00:46:13;;;;;;;18.77;9.30;;;1.60;99.90;;;;;;4981800;28;20572;-82
2023/02/17 00:48:40;;;;;;;16.47;8.40;;;1.50;99.90;;;;;;4997885;28;20181;-82
2023/02/17 00:51:05;;;;;;;28.33;10.30;;;1.60;99.90;;;;;;5015721;28;20213;-82
2023/02/17 00:53:31;;;;;;;23.80;10.10;;;1.50;99.90;;;;;;5015311;28;20638;-82
2023/02/17 00:55:57;;;;;;;22.70;9.67;;;1.50;99.90;;;;;;4998218;28;20234;-82
2023/02/17 00:58:23;;;;;;;24.33;9.40;;;1.50;99.90;;;;;;4998281;28;20182;-82
2023/02/17 01:00:48;;;;;;;19.93;8.77;;;1.50;99.90;;;;;;5015242;28;20626;-83
2023/02/17 01:03:14;;;;;;;13.43;7.97;;;1.50;99.90;;;;;;4997673;28;20184;-83
2023/02/17 01:05:46;;;;;;;24.33;10.83;;;1.50;99.90;;;;;;5015092;28;20670;-83
2023/02/17 01:08:12;;;;;;;24.27;9.60;;;1.50;99.90;;;;;;5015347;28;20180;-83
2023/02/17 01:10:40;;;;;;;18.13;9.23;;;1.40;99.90;;;;;;5015058;28;20177;-82
2023/02/17 01:13:06;;;;;;;22.47;8.57;;;1.40;99.90;;;;;;5015185;28;20231;-82
2023/02/17 01:15:40;;;;;;;17.03;8.63;;;1.40;99.90;;;;;;4997494;28;20186;-82
2023/02/17 01:18:06;;;;;;;18.87;11.00;;;1.40;99.90;;;;;;5015217;28;20185;-83
2023/02/17 01:20:36;;;;;;;17.43;9.00;;;1.40;99.90;;;;;;4981284;28;20185;-83
2023/02/17 01:23:03;;;;;;;14.87;8.17;;;1.50;99.90;;;;;;5014573;28;20174;-83
2023/02/17 01:25:28;;;;;;;26.70;9.53;;;1.40;99.90;;;;;;5015024;28;20232;-83
2023/02/17 01:27:54;;;;;;;18.63;9.27;;;1.40;99.90;;;;;;5014796;28;20183;-82
2023/02/17 01:30:20;;;;;;;26.57;10.20;;;1.50;99.90;;;;;;4997768;28;20228;-83
2023/02/17 01:32:46;;;;;;;20.43;8.77;;;1.50;99.90;;;;;;4997131;28;20684;-83
2023/02/17 01:35:11;;;;;;;21.70;8.97;;;1.50;99.90;;;;;;5014902;28;20190;-83
2023/02/17 01:37:37;;;;;;;28.17;9.77;;;1.50;99.90;;;;;;4996637;28;20560;-83
2023/02/17 01:40:04;;;;;;;23.37;9.43;;;1.50;99.90;;;;;;4996471;28;20241;-82
2023/02/17 01:42:30;;;;;;;15.40;9.03;;;1.50;99.90;;;;;;4996989;28;20186;-83
2023/02/17 01:45:17;;;;;;;21.07;8.73;;;1.50;99.90;;;;;;5014337;28;20744;-83
2023/02/17 01:48:09;;;;;;;20.70;11.33;;;1.50;99.90;;;;;;5014847;28;20176;-83
2023/02/17 01:50:39;;;;;;;25.80;10.93;;;1.50;99.90;;;;;;5014102;28;20195;-82
2023/02/17 01:53:08;;;;;;;17.90;11.57;;;1.60;99.90;;;;;;4996559;28;20173;-83
2023/02/17 01:55:36;;;;;;;23.90;10.00;;;1.50;99.90;;;;;;4996897;28;20202;-83
2023/02/17 01:58:03;;;;;;;22.57;10.17;;;1.60;99.90;;;;;;5014016;28;20184;-83
2023/02/17 02:00:31;;;;;;;30.87;11.93;;;1.50;99.90;;;;;;4997263;28;20182;-82
2023/02/17 02:02:59;;;;;;;17.80;9.03;;;1.50;99.90;;;;;;5013832;28;20174;-82
2023/02/17 02:05:25;;;;;;;25.27;9.57;;;1.50;99.90;;;;;;5014281;28;20213;-83
2023/02/17 02:07:51;;;;;;;23.10;9.57;;;1.50;99.90;;;;;;4996654;28;20652;-83
2023/02/17 02:10:18;;;;;;;16.33;9.23;;;1.50;99.90;;;;;;5014024;28;20260;-82
2023/02/17 02:12:44;;;;;;;27.67;11.43;;;1.50;99.90;;;;;;5014148;28;20792;-83
2023/02/17 02:15:24;;;;;;;26.97;10.40;;;1.40;99.90;;;;;;5014179;28;20265;-83
2023/02/17 02:18:05;;;;;;;22.47;9.27;;;1.40;99.90;;;;;;5014283;28;20186;-83
2023/02/17 02:21:02;;;;;;;28.43;8.00;;;1.50;99.90;;;;;;5014315;28;20231;-83
2023/02/17 02:23:56;;;;;;;19.40;7.53;;;1.50;99.90;;;;;;5006563;28;20220;-83
2023/02/17 02:27:03;;;;;;;17.33;8.77;;;1.50;99.90;;;;;;4995666;28;20241;-83
2023/02/17 02:30:01;;;;;;;18.60;8.33;;;1.50;99.90;;;;;;4996514;28;20339;-82
2023/02/17 02:32:55;;;;;;;19.10;9.33;;;1.50;99.90;;;;;;4996194;28;20297;-83
2023/02/17 02:35:55;;;;;;;22.87;8.63;;;1.50;99.90;;;;;;5013675;28;20176;-83
2023/02/17 02:39:00;;;;;;;19.00;9.67;;;1.50;99.90;;;;;;5013603;28;20205;-82
2023/02/17 02:41:34;;;;;;;18.00;10.00;;;1.50;99.90;;;;;;4996284;28;20243;-83
2023/02/17 02:44:05;;;;;;;17.00;9.53;;;1.50;99.90;;;;;;4995928;28;20614;-83
2023/02/17 02:46:31;;;;;;;27.27;9.20;;;1.50;99.90;;;;;;5013778;28;20253;-83
2023/02/17 02:48:57;;;;;;;17.90;11.00;;;1.50;99.90;;;;;;4996118;28;20177;-82
2023/02/17 02:51:36;;;;;;;20.77;8.80;;;1.50;99.90;;;;;;5013575;28;20173;-83
2023/02/17 02:54:20;;;;;;;28.23;8.67;;;1.60;99.90;;;;;;5013497;28;20621;-83
2023/02/17 02:57:24;;;;;;;26.33;10.63;;;1.60;99.90;;;;;;5013370;28;20255;-83
2023/02/17 03:00:09;;;;;;;25.17;9.77;;;1.60;99.90;;;;;;4992741;28;20226;-83
2023/02/17 03:02:51;;;;;;;17.57;6.87;;;1.60;99.90;;;;;;5013525;28;20161;-83
2023/02/17 03:05:54;;;;;;;31.07;13.57;;;1.70;99.90;;;;;;4995573;28;20690;-83
2023/02/17 03:08:31;;;;;;;24.83;11.27;;;1.60;99.90;;;;;;5013306;28;20188;-83
2023/02/17 03:10:57;;;;;;;25.20;9.20;;;1.60;99.90;;;;;;4996094;28;20540;-83
2023/02/17 03:13:23;;;;;;;11.30;6.93;;;1.70;99.90;;;;;;5013182;28;20177;-83
2023/02/17 03:15:49;;;;;;;20.03;9.43;;;1.70;99.90;;;;;;5013181;28;20586;-83
2023/02/17 03:18:14;;;;;;;24.27;9.80;;;1.70;99.90;;;;;;4979142;28;20185;-83
2023/02/17 03:20:56;;;;;;;26.90;9.03;;;1.70;99.90;;;;;;4996001;28;20189;-83
2023/02/17 03:23:22;;;;;;;25.33;11.80;;;1.70;99.90;;;;;;5013030;28;20192;-83
2023/02/17 03:25:48;;;;;;;21.40;10.03;;;1.70;99.90;;;;;;4995306;28;20713;-82
2023/02/17 03:28:14;;;;;;;22.63;8.87;;;1.70;99.90;;;;;;5013094;28;20184;-83
2023/02/17 03:30:40;;;;;;;27.33;11.50;;;1.70;99.90;;;;;;5013014;28;20181;-82
2023/02/17 03:33:06;;;;;;;27.63;10.67;;;1.70;99.90;;;;;;4995777;28;20207;-82
2023/02/17 03:35:32;;;;;;;33.83;9.43;;;3.00;99.90;;;;;;4995830;28;20182;-83
2023/02/17 03:37:58;;;;;;;28.90;11.33;;;1.70;99.90;;;;;;4995643;28;20653;-83
2023/02/17 03:40:23;;;;;;;19.63;9.80;;;1.70;99.90;;;;;;4995435;28;20201;-83
2023/02/17 03:42:49;;;;;;;39.70;11.90;;;1.60;99.90;;;;;;4995617;28;20223;-83
2023/02/17 03:45:15;;;;;;;29.97;11.50;;;1.60;99.90;;;;;;5012849;28;20217;-83
2023/02/17 03:47:40;;;;;;;19.97;11.17;;;1.60;99.90;;;;;;4995476;28;20539;-83
2023/02/17 03:50:07;;;;;;;28.37;10.77;;;1.60;99.90;;;;;;5013307;28;20193;-82
2023/02/17 03:52:32;;;;;;;18.83;9.80;;;1.60;99.90;;;;;;4995413;28;20227;-83
2023/02/17 03:54:58;;;;;;;20.17;11.37;;;1.60;99.90;;;;;;5013319;28;20189;-82
2023/02/17 03:57:24;;;;;;;27.93;10.97;;;1.60;99.90;;;;;;5012817;28;20235;-82
2023/02/17 03:59:49;;;;;;;28.20;12.50;;;1.60;99.90;;;;;;5013399;28;20182;-82
2023/02/17 04:02:15;;;;;;;32.97;10.27;;;1.70;99.90;;;;;;4997124;28;20206;-83
2023/02/17 04:04:41;;;;;;;17.07;9.37;;;1.60;99.90;;;;;;4966663;28;20246;-82
2023/02/17 04:07:06;;;;;;;16.90;10.23;;;1.70;99.90;;;;;;4998931;28;20566;-82
2023/02/17 04:09:32;;;;;;;25.27;9.30;;;1.70;99.90;;;;;;5016239;28;20649;-82
2023/02/17 04:11:58;;;;;;;30.27;10.77;;;1.70;99.90;;;;;;4998941;28;20627;-82
2023/02/17 04:14:23;;;;;;;31.77;9.17;;;1.70;99.90;;;;;;4998474;28;20189;-83
2023/02/17 04:16:49;;;;;;;27.83;10.07;;;1.70;99.90;;;;;;4998538;28;20181;-82
2023/02/17 04:19:14;;;;;;;17.67;9.53;;;1.70;99.90;;;;;;4998375;28;20191;-83
2023/02/17 04:21:40;;;;;;;34.63;11.07;;;1.70;99.90;;;;;;5016012;28;20187;-83
2023/02/17 04:24:06;;;;;;;28.23;12.07;;;1.90;99.90;;;;;;5015795;28;20219;-82
2023/02/17 04:26:31;;;;;;;27.63;11.07;;;1.70;99.90;;;;;;4998189;28;20267;-83
2023/02/17 04:28:57;;;;;;;37.13;10.80;;;1.80;99.90;;;;;;4998365;28;20212;-83
2023/02/17 04:31:24;;;;;;;19.20;9.83;;;1.70;99.90;;;;;;4997951;28;20185;-82
2023/02/17 04:33:50;;;;;;;28.53;11.43;;;1.80;99.90;;;;;;4997891;28;20217;-82
2023/02/17 04:36:16;;;;;;;31.80;9.87;;;1.80;99.90;;;;;;5015447;28;20216;-83
2023/02/17 04:38:41;;;;;;;24.33;9.23;;;1.80;99.90;;;;;;4998154;28;20663;-83
2023/02/17 04:41:07;;;;;;;32.93;11.30;;;1.80;99.90;;;;;;4981921;28;20186;-83
2023/02/17 04:43:33;;;;;;;18.03;7.73;;;1.80;99.90;;;;;;4997775;28;20282;-83
2023/02/17 04:45:58;;;;;;;19.50;9.40;;;1.80;99.90;;;;;;4998056;28;20244;-83
2023/02/17 04:48:25;;;;;;;25.33;11.97;;;1.80;99.90;;;;;;5015482;28;20536;-84
2023/02/17 04:50:51;;;;;;;36.47;13.40;;;1.80;99.90;;;;;;5035402;28;20231;-83
2023/02/17 04:53:17;;;;;;;22.87;10.07;;;1.80;99.90;;;;;;5035296;28;20267;-83
2023/02/17 04:55:42;;;;;;;25.67;10.20;;;1.90;99.90;;;;;;5017529;28;20226;-83
2023/02/17 04:58:09;;;;;;;24.70;8.83;;;1.90;99.90;;;;;;5017613;28;20538;-83
2023/02/17 05:00:35;;;;;;;21.97;8.83;;;1.80;99.90;;;;;;5017268;28;20593;-82
2023/02/17 05:03:01;;;;;;;27.83;13.43;;;1.90;99.90;;;;;;5016774;28;20564;-83
2023/02/17 05:05:27;;;;;;;20.57;8.93;;;1.90;99.90;;;;;;5013911;28;20216;-83
2023/02/17 05:07:52;;;;;;;30.27;12.83;;;1.90;99.90;;;;;;4996293;28;20217;-83
2023/02/17 05:10:19;;;;;;;31.13;14.20;;;1.90;99.90;;;;;;4980869;28;20235;-82
2023/02/17 05:12:45;;;;;;;17.07;10.60;;;2.00;99.90;;;;;;4997012;28;20214;-82
2023/02/17 05:15:11;;;;;;;20.43;10.37;;;2.00;99.90;;;;;;5020550;28;20250;-82
2023/02/17 05:17:37;;;;;;;19.67;9.10;;;2.00;99.90;;;;;;5015563;28;20197;-83
2023/02/17 05:20:04;;;;;;;27.87;8.57;;;2.00;99.90;;;;;;4980930;28;20197;-82
2023/02/17 05:22:30;;;;;;;22.43;10.63;;;2.00;99.90;;;;;;4983386;28;20243;-83
2023/02/17 05:24:55;;;;;;;27.43;11.83;;;2.00;99.90;;;;;;5016222;28;20247;-83
2023/02/17 05:27:21;;;;;;;21.07;8.70;;;2.00;99.90;;;;;;5001217;28;20216;-83
2023/02/17 05:29:47;;;;;;;22.83;12.43;;;2.00;99.90;;;;;;5000260;28;20621;-84
2023/02/17 05:32:12;;;;;;;24.27;10.80;;;2.10;99.90;;;;;;5000501;28;20191;-84
2023/02/17 05:34:38;;;;;;;17.83;10.17;;;2.00;99.90;;;;;;5021483;28;20190;-84
2023/02/17 05:37:04;;;;;;;27.90;11.73;;;2.00;99.90;;;;;;5013357;28;20280;-84
2023/02/17 05:39:30;;;;;;;22.17;10.97;;;2.00;99.90;;;;;;5005858;28;20212;-83
2023/02/17 05:41:55;;;;;;;28.00;12.83;;;1.90;99.90;;;;;;5024521;28;20223;-83
2023/02/17 05:44:21;;;;;;;27.33;12.93;;;2.00;99.90;;;;;;4983726;28;20638;-83
2023/02/17 05:46:47;;;;;;;32.33;13.73;;;2.00;99.90;;;;;;5018628;28;20239;-84
2023/02/17 05:49:13;;;;;;;21.67;11.60;;;2.00;99.90;;;;;;5010790;28;20212;-84
2023/02/17 05:51:38;;;;;;;27.53;11.60;;;2.00;99.90;;;;;;5006877;28;20204;-84
2023/02/17 05:54:04;;;;;;;20.17;10.20;;;1.90;99.90;;;;;;4995068;28;20222;-84
2023/02/17 05:56:30;;;;;;;19.23;9.73;;;2.00;99.90;;;;;;4997331;28;20525;-84
2023/02/17 05:58:55;;;;;;;22.37;11.67;;;1.90;99.90;;;;;;4994943;28;20552;-85
2023/02/17 06:01:21;;;;;;;25.57;8.90;;;2.00;99.90;;;;;;4988211;28;20219;-83
2023/02/17 06:03:47;;;;;;;22.70;10.10;;;1.90;99.90;;;;;;5013046;28;20180;-84
2023/02/17 06:06:12;;;;;;;24.77;10.07;;;2.00;99.90;;;;;;5027525;28;20816;-84
2023/02/17 06:08:39;;;;;;;31.27;10.37;;;2.00;99.90;;;;;;4995000;28;20653;-85
2023/02/17 06:11:05;;;;;;;32.27;12.73;;;2.00;99.90;;;;;;4979561;28;20192;-84
2023/02/17 06:13:31;;;;;;;21.27;11.10;;;2.00;99.90;;;;;;4994838;28;20227;-84
2023/02/17 06:15:57;;;;;;;26.00;9.63;;;2.00;99.90;;;;;;4996181;28;20648;-84
2023/02/17 06:18:23;;;;;;;26.37;9.17;;;2.00;99.90;;;;;;5015961;28;20189;-85
2023/02/17 06:20:48;;;;;;;32.83;13.60;;;0.70;99.90;;;;;;4979746;28;20189;-84
2023/02/17 06:23:14;;;;;;;36.80;13.27;;;2.10;99.90;;;;;;4979677;28;20283;-85
2023/02/17 06:25:40;;;;;;;17.47;8.07;;;2.10;99.90;;;;;;4995438;28;20268;-85
2023/02/17 06:28:06;;;;;;;34.30;12.47;;;2.10;99.90;;;;;;5015444;28;20191;-85
2023/02/17 06:30:32;;;;;;;26.23;10.57;;;2.20;99.90;;;;;;4995107;28;20181;-84
2023/02/17 06:32:58;;;;;;;26.73;11.10;;;2.20;99.90;;;;;;4982255;28;20279;-84
2023/02/17 06:35:24;;;;;;;14.93;8.13;;;2.20;99.90;;;;;;4982612;28;20210;-86
2023/02/17 06:37:49;;;;;;;37.10;11.60;;;2.30;99.90;;;;;;4994426;28;20642;-85
2023/02/17 06:40:15;;;;;;;14.63;9.03;;;2.30;99.90;;;;;;5010343;28;20538;-85
2023/02/17 06:42:41;;;;;;;31.27;10.73;;;2.40;99.90;;;;;;5011782;28;20252;-86
2023/02/17 06:45:07;;;;;;;37.50;14.20;;;2.40;99.90;;;;;;5008267;28;20183;-86
2023/02/17 06:47:34;;;;;;;15.93;8.07;;;2.40;99.90;;;;;;5012700;28;20655;-85
2023/02/17 06:50:00;;;;;;;32.37;12.43;;;2.40;99.90;;;;;;4994068;28;20660;-84
2023/02/17 06:52:26;;;;;;;21.57;10.73;;;2.40;99.90;;;;;;5005602;28;20267;-83
2023/02/17 06:54:52;;;;;;;24.47;10.60;;;2.40;99.90;;;;;;5021541;28;20193;-84
2023/02/17 06:57:17;;;;;;;27.93;13.57;;;2.40;99.90;;;;;;4999020;28;20173;-85
2023/02/17 06:59:43;;;;;;;32.23;9.80;;;2.50;99.90;;;;;;5013949;28;20181;-84
2023/02/17 07:02:13;;;;;;;20.07;11.47;;;2.50;99.90;;;;;;5010586;28;20207;-84
2023/02/17 07:04:42;;;;;;;29.50;14.00;;;2.50;99.90;;;;;;5016771;28;20180;-84
2023/02/17 07:07:09;;;;;;;27.17;10.70;;;2.50;99.90;;;;;;5016539;28;20703;-84
2023/02/17 07:09:35;;;;;;;28.20;12.47;;;2.50;99.90;;;;;;4996458;28;20556;-83
2023/02/17 07:12:01;;;;;;;27.77;13.97;;;2.60;99.90;;;;;;5019604;28;20180;-84
2023/02/17 07:14:27;;;;;;;29.17;13.60;;;2.60;99.90;;;;;;5013827;28;20180;-83
2023/02/17 07:16:53;;;;;;;36.90;12.23;;;2.70;99.90;;;;;;5001634;28;20637;-84
2023/02/17 07:19:19;;;;;;;39.03;13.40;;;2.70;99.90;;;;;;4995651;28;20183;-85
2023/02/17 07:21:45;;;;;;;26.97;11.67;;;2.80;99.90;;;;;;5030676;28;20187;-85
2023/02/17 07:24:11;;;;;;;28.17;12.77;;;2.90;99.90;;;;;;5012883;28;20179;-84
2023/02/17 07:26:39;;;;;;;36.63;12.97;;;3.00;99.90;;;;;;5030592;28;20203;-84
2023/02/17 07:29:06;;;;;;;34.97;11.83;;;3.00;99.90;;;;;;5013249;28;20188;-84
2023/02/17 07:31:32;;;;;;;40.00;11.60;;;3.10;99.90;;;;;;5031131;28;20184;-84
2023/02/17 07:34:00;;;;;;;32.30;13.17;;;3.20;99.90;;;;;;5031125;28;20191;-85
2023/02/17 07:36:25;;;;;;;26.60;13.33;;;3.20;99.90;;;;;;5015216;28;20234;-85
2023/02/17 07:38:51;;;;;;;31.93;12.77;;;3.20;99.90;;;;;;5036756;28;20189;-84
2023/02/17 07:41:20;;;;;;;23.50;10.60;;;3.20;99.90;;;;;;5019795;28;20216;-83
2023/02/17 07:43:47;;;;;;;29.80;11.53;;;3.20;99.90;;;;;;5043577;28;20184;-84
2023/02/17 07:46:13;;;;;;;34.93;12.17;;;3.20;99.90;;;;;;5038902;28;20209;-86
2023/02/17 07:48:39;;;;;;;14.90;7.40;;;3.20;99.90;;;;;;5018721;28;20183;-85
2023/02/17 07:51:05;;;;;;;24.00;12.13;;;3.20;99.90;;;;;;5036355;28;20180;-84
2023/02/17 07:53:31;;;;;;;28.73;11.60;;;3.20;99.90;;;;;;5036557;28;20180;-84
2023/02/17 07:55:57;;;;;;;36.20;14.03;;;3.20;99.90;;;;;;5018778;28;20192;-84
2023/02/17 07:58:22;;;;;;;26.40;11.00;;;3.20;99.90;;;;;;5002531;28;20181;-85
2023/02/17 08:00:48;;;;;;;33.80;12.73;;;3.20;99.90;;;;;;5036229;28;20183;-85
2023/02/17 08:03:14;;;;;;;29.67;11.83;;;3.20;99.90;;;;;;5036521;28;20212;-84
2023/02/17 08:05:43;;;;;;;39.03;12.13;;;3.20;99.90;;;;;;5036284;28;20446;-84
2023/02/17 08:13:37;;;;;;;36.20;12.27;;;3.30;99.90;;;;;;5036156;28;20222;-84
2023/02/17 08:16:03;;;;;;;31.43;11.60;;;3.40;99.90;;;;;;5035924;28;20185;-84
2023/02/17 08:18:29;;;;;;;36.10;11.83;;;3.40;99.90;;;;;;5036046;28;20176;-84
2023/02/17 08:20:54;;;;;;;34.20;12.03;;;3.40;99.90;;;;;;5018434;28;20195;-85
2023/02/17 08:23:20;;;;;;;27.00;11.70;;;3.50;99.90;;;;;;5036085;28;20184;-84
2023/02/17 08:25:46;;;;;;;24.80;11.37;;;3.60;99.90;;;;;;5018187;28;20239;-84
2023/02/17 08:28:11;;;;;;;28.57;11.67;;;3.60;99.90;;;;;;5020313;28;20196;-84
2023/02/17 08:30:37;;;;;;;24.73;10.80;;;3.70;99.90;;;;;;5035823;28;20204;-84
2023/02/17 08:33:04;;;;;;;22.27;11.27;;;3.80;99.90;;;;;;5017834;28;20189;-85
2023/02/17 08:35:30;;;;;;;33.33;14.67;;;3.90;99.90;;;;;;5017868;28;20279;-85
2023/02/17 08:37:55;;;;;;;34.10;13.03;;;3.90;99.90;;;;;;5035161;28;20259;-85
2023/02/17 08:40:21;;;;;;;32.77;12.03;;;3.90;99.90;;;;;;5035754;28;20626;-85
2023/02/17 08:42:47;;;;;;;33.23;13.30;;;3.90;99.90;;;;;;5035630;28;20172;-85
2023/02/17 08:45:14;;;;;;;32.00;13.73;;;4.00;99.90;;;;;;5001344;28;20219;-85
2023/02/17 08:47:40;;;;;;;23.17;11.77;;;4.00;99.90;;;;;;5017734;28;20593;-84
2023/02/17 08:50:10;;;;;;;24.50;10.37;;;4.00;99.90;;;;;;5035165;28;20177;-85
2023/02/17 08:52:36;;;;;;;30.57;11.17;;;4.10;99.90;;;;;;5018060;28;20181;-85
2023/02/17 08:55:02;;;;;;;33.80;14.37;;;4.10;99.90;;;;;;5035429;28;20651;-84
2023/02/17 08:57:28;;;;;;;30.90;12.17;;;4.10;99.90;;;;;;5017830;28;20268;-84
2023/02/17 08:59:53;;;;;;;27.50;10.67;;;4.10;99.90;;;;;;5035129;28;20215;-85
2023/02/17 09:02:19;;;;;;;25.80;11.10;;;4.20;99.90;;;;;;5035282;28;20180;-84
2023/02/17 09:04:45;;;;;;;26.13;11.27;;;4.20;99.90;;;;;;5017417;28;20624;-84
2023/02/17 09:07:13;;;;;;;23.53;11.67;;;4.20;99.90;;;;;;5017071;28;20291;-84
2023/02/17 09:09:39;;;;;;;28.67;11.30;;;4.20;99.90;;;;;;5035160;28;20180;-84
2023/02/17 09:12:05;;;;;;;17.37;11.27;;;4.30;99.90;;;;;;5017021;28;20177;-84
2023/02/17 09:14:31;;;;;;;32.83;13.57;;;4.30;99.90;;;;;;5035239;28;20212;-85
2023/02/17 09:16:57;;;;;;;25.50;10.23;;;4.40;99.90;;;;;;5017277;28;20211;-84
2023/02/17 09:19:23;;;;;;;26.00;13.20;;;4.40;99.90;;;;;;5017417;28;20297;-84
2023/02/17 09:21:49;;;;;;;34.10;12.13;;;4.60;99.90;;;;;;5034839;28;20176;-85
2023/02/17 09:24:16;;;;;;;41.13;11.87;;;4.70;99.90;;;;;;5034216;28;20194;-85
2023/02/17 09:26:42;;;;;;;33.13;12.77;;;4.80;99.90;;;;;;5034506;28;20204;-85
2023/02/17 09:29:08;;;;;;;30.33;11.37;;;4.90;99.90;;;;;;5034583;28;20187;-85
2023/02/17 09:31:34;;;;;;;23.03;9.90;;;4.90;99.90;;;;;;5034463;28;20200;-83
2023/02/17 09:34:00;;;;;;;24.00;9.53;;;5.10;99.90;;;;;;5034442;28;20204;-83
2023/02/17 09:36:32;;;;;;;29.60;11.47;;;5.00;99.90;;;;;;5034565;28;20184;-85
2023/02/17 09:38:58;;;;;;;27.10;11.20;;;5.00;99.90;;;;;;5034180;28;20267;-85
2023/02/17 09:41:27;;;;;;;17.27;10.77;;;5.10;99.90;;;;;;5034595;28;20238;-85
2023/02/17 09:43:54;;;;;;;28.50;11.93;;;5.20;99.90;;;;;;5034558;28;20180;-85
2023/02/17 09:46:31;;;;;;;21.53;10.53;;;5.30;99.90;;;;;;5034250;28;20291;-85
2023/02/17 09:49:27;;;;;;;19.13;9.70;;;5.40;99.90;;;;;;5034482;28;20680;-85
2023/02/17 09:52:24;;;;;;;23.63;10.97;;;5.40;99.90;;;;;;5031246;28;20278;-84
2023/02/17 09:55:06;;;;;;;16.10;10.00;;;5.60;99.90;;;;;;5034127;28;20161;-84
2023/02/17 09:57:43;;;;;;;31.33;11.30;;;5.60;99.90;;;;;;5034269;28;20172;-84
2023/02/17 10:00:14;;;;;;;28.43;12.90;;;5.60;99.90;;;;;;5033027;28;20171;-84
2023/02/17 10:02:44;;;;;;;23.00;10.37;;;5.60;99.90;;;;;;5016438;28;20176;-85
2023/02/17 10:05:13;;;;;;;30.33;12.30;;;5.70;99.90;;;;;;5033855;28;20177;-84
2023/02/17 10:07:44;;;;;;;27.83;11.10;;;5.60;99.90;;;;;;5034170;28;20225;-83
2023/02/17 10:10:37;;;;;;;23.87;11.73;;;5.60;99.90;;;;;;5016262;28;20574;-85
2023/02/17 10:13:05;;;;;;;26.07;11.50;;;5.70;99.90;;;;;;5045381;28;20249;-84
2023/02/17 10:15:37;;;;;;;25.93;12.87;;;5.70;99.90;;;;;;5037187;28;20188;-85
2023/02/17 10:18:16;;;;;;;25.80;10.90;;;5.70;99.90;;;;;;5033679;28;20251;-85
2023/02/17 10:20:49;;;;;;;24.87;10.27;;;5.70;99.90;;;;;;5034006;28;20161;-84
2023/02/17 10:23:25;;;;;;;28.37;11.50;;;5.80;99.90;;;;;;5015940;28;20249;-84
2023/02/17 10:26:08;;;;;;;23.60;10.83;;;5.90;99.90;;;;;;5033665;28;20227;-84
2023/02/17 10:28:49;;;;;;;25.83;11.10;;;6.00;99.90;;;;;;5033829;28;20685;-84
2023/02/17 10:31:42;;;;;;;18.63;9.53;;;6.10;99.90;;;;;;5033370;28;20636;-84
2023/02/17 10:34:36;;;;;;;27.97;11.03;;;6.20;99.90;;;;;;5015662;28;20601;-84
2023/02/17 10:37:18;;;;;;;19.10;8.80;;;6.30;99.90;;;;;;5033583;28;20184;-84
2023/02/17 10:39:53;;;;;;;33.53;12.10;;;6.40;99.90;;;;;;5033348;28;20164;-84
2023/02/17 10:42:22;;;;;;;23.47;11.27;;;6.50;99.90;;;;;;5015520;28;20285;-84
2023/02/17 10:44:49;;;;;;;14.03;9.57;;;6.50;99.90;;;;;;5033399;28;20177;-84
2023/02/17 10:47:16;;;;;;;26.73;10.57;;;6.40;99.90;;;;;;5033214;28;20238;-84
2023/02/17 10:49:48;;;;;;;31.03;9.83;;;6.40;99.90;;;;;;5015733;28;20263;-84
2023/02/17 10:52:18;;;;;;;32.00;8.43;;;6.30;99.90;;;;;;4999080;28;20184;-84
2023/02/17 10:54:58;;;;;;;21.47;11.13;;;6.40;99.90;;;;;;5033528;28;20183;-84
2023/02/17 10:57:31;;;;;;;20.03;9.20;;;6.40;99.90;;;;;;5033000;28;20164;-84
2023/02/17 10:59:57;;;;;;;26.37;9.80;;;6.50;99.90;;;;;;5015566;28;20541;-85
2023/02/17 11:02:42;;;;;;;19.23;8.90;;;6.60;99.90;;;;;;5033007;28;20187;-84
2023/02/17 11:05:29;;;;;;;13.97;7.77;;;6.60;99.90;;;;;;5015597;28;20218;-84
2023/02/17 11:08:04;;;;;;;28.77;11.53;;;6.50;99.90;;;;;;5015523;28;20618;-85
2023/02/17 11:10:34;;;;;;;15.47;7.67;;;6.50;99.90;;;;;;5015765;28;20258;-84
2023/02/17 11:13:02;;;;;;;22.13;9.17;;;6.60;99.90;;;;;;5019750;28;20199;-85
2023/02/17 11:15:30;;;;;;;29.17;9.90;;;6.60;99.90;;;;;;5019246;28;20207;-84
2023/02/17 11:17:59;;;;;;;19.77;9.30;;;6.70;99.90;;;;;;5019532;28;20184;-83
2023/02/17 11:20:32;;;;;;;26.50;10.83;;;6.60;99.90;;;;;;5036663;28;20192;-86
2023/02/17 11:23:04;;;;;;;24.57;10.60;;;6.60;99.90;;;;;;5036890;28;20164;-84
2023/02/17 11:25:32;;;;;;;27.47;10.00;;;6.60;99.90;;;;;;5036337;28;20750;-83
2023/02/17 11:28:01;;;;;;;26.67;10.17;;;6.70;99.90;;;;;;5036442;28;20201;-84
2023/02/17 11:30:28;;;;;;;33.00;11.20;;;6.60;99.90;;;;;;5018816;28;20176;-84
2023/02/17 11:32:54;;;;;;;19.67;9.10;;;6.60;99.90;;;;;;5037141;28;20219;-85
2023/02/17 11:35:41;;;;;;;25.60;10.37;;;6.60;99.90;;;;;;5018608;28;20594;-85
2023/02/17 11:38:16;;;;;;;20.40;9.27;;;6.60;99.90;;;;;;5037071;28;20171;-84
2023/02/17 11:40:58;;;;;;;25.50;9.50;;;6.70;99.90;;;;;;5019013;28;20234;-84
2023/02/17 11:43:27;;;;;;;20.73;9.90;;;6.80;99.90;;;;;;5036500;28;20164;-84
2023/02/17 11:46:11;;;;;;;20.97;11.23;;;6.80;99.90;;;;;;5018274;28;20218;-84
2023/02/17 11:48:58;;;;;;;27.67;11.03;;;6.70;99.90;;;;;;5036321;28;20260;-84
2023/02/17 11:52:08;;;;;;;19.10;10.00;;;6.70;99.90;;;;;;5018734;28;20625;-85
2023/02/17 11:54:55;;;;;;;16.37;6.93;;;6.70;99.90;;;;;;4990817;28;20180;-85
2023/02/17 11:57:32;;;;;;;24.20;8.80;;;6.70;99.90;;;;;;5036689;28;20164;-83
2023/02/17 12:00:21;;;;;;;20.40;10.90;;;6.60;99.90;;;;;;5036385;28;20215;-83
2023/02/17 12:03:17;;;;;;;17.37;8.57;;;6.70;99.90;;;;;;5036251;28;20165;-84
2023/02/17 12:05:54;;;;;;;18.87;9.53;;;6.60;99.90;;;;;;5036050;28;20607;-85
2023/02/17 12:08:30;;;;;;;21.57;9.43;;;6.70;99.90;;;;;;5036348;28;20644;-83
2023/02/17 12:11:40;;;;;;;22.23;10.70;;;6.70;99.90;;;;;;5036341;28;20175;-83
2023/02/17 12:14:24;;;;;;;20.67;10.77;;;6.80;99.90;;;;;;4956117;29;20247;-82
2023/02/17 12:17:06;;;;;;;15.20;7.17;;;6.80;99.90;;;;;;5034896;28;20246;-84
2023/02/17 12:19:41;;;;;;;23.07;9.13;;;6.80;99.90;;;;;;5018327;28;20642;-84
2023/02/17 12:22:06;;;;;;;30.60;11.50;;;6.80;99.90;;;;;;5017509;28;20266;-83
2023/02/17 12:25:06;;;;;;;27.50;11.43;;;6.90;99.90;;;;;;5035347;28;20255;-85
2023/02/17 12:27:46;;;;;;;25.70;13.27;;;6.80;99.90;;;;;;5017912;28;20606;-84
2023/02/17 12:30:36;;;;;;;20.93;9.37;;;6.70;99.90;;;;;;5018334;28;20641;-84
2023/02/17 12:33:10;;;;;;;18.23;9.47;;;6.70;99.90;;;;;;5038107;28;20165;-85
2023/02/17 12:35:53;;;;;;;14.73;8.23;;;6.70;99.90;;;;;;5036710;28;20187;-85
2023/02/17 12:38:29;;;;;;;26.53;10.60;;;6.60;99.90;;;;;;5040965;28;20204;-85
2023/02/17 12:41:21;;;;;;;18.90;8.87;;;6.70;99.90;;;;;;5039279;28;20168;-84
2023/02/17 12:43:55;;;;;;;18.97;9.27;;;6.60;99.90;;;;;;5039736;28;20240;-83
2023/02/17 12:46:42;;;;;;;19.43;7.77;;;6.60;99.90;;;;;;5019258;28;20200;-83
2023/02/17 12:49:20;;;;;;;22.87;10.47;;;6.60;99.90;;;;;;5018636;28;20224;-83
2023/02/17 12:51:51;;;;;;;17.93;9.47;;;6.60;99.90;;;;;;5017811;28;20656;-84
2023/02/17 12:54:19;;;;;;;20.30;9.70;;;6.60;99.90;;;;;;5036581;28;20165;-84
2023/02/17 12:56:58;;;;;;;13.90;6.87;;;6.60;99.90;;;;;;5039498;28;20194;-83
2023/02/17 12:59:45;;;;;;;20.13;8.90;;;6.60;99.90;;;;;;5022153;28;20240;-83
2023/02/17 13:02:17;;;;;;;20.30;9.00;;;6.60;99.90;;;;;;5041953;28;20180;-83
2023/02/17 13:04:46;;;;;;;25.83;10.47;;;6.60;99.90;;;;;;5017454;28;20621;-84